Weather at Maricopa County Sheriff's Office Heliport

Public forecast

Using degrees Fahrenheit for public forecast. Weather courtesy of forecast.io.

Closest aviation weather report (METAR) to Maricopa County Sheriff's Office Heliport

Closest report is Chandler Municipal Airport, 6.8 nm (12.6 km) S.

2023/09/24 16:47 (retrieved 1 hour ago)

KCHD 241647Z 08003KT 10SM CLR 29/08 A2998

Closest aviation forecast (TAF) to Maricopa County Sheriff's Office Heliport

Closest forecast is Phoenix Sky Harbor International Airport, 9.4 nm (17.5 km) WNW.

2023/09/24 15:48 Ammendment (retrieved 2 hours ago)

TAF AMD KPHX 241446Z 2415/2518 09004KT P6SM SKC FM242100 27007KT P6SM SKC FM250700 10005KT P6SM SKC